createdAt,value
2018-07-25T00:01:12.042Z,9.10
2018-07-25T00:04:36.768Z,9.00
2018-07-25T00:08:01.496Z,9.57
2018-07-25T00:11:26.222Z,8.80
2018-07-25T00:14:50.968Z,9.20
2018-07-25T00:18:15.689Z,9.33
2018-07-25T00:21:40.397Z,9.10
2018-07-25T00:25:05.117Z,9.13
2018-07-25T00:28:29.901Z,9.50
2018-07-25T00:31:54.603Z,8.93
2018-07-25T00:35:19.333Z,9.63
2018-07-25T00:38:44.109Z,8.90
2018-07-25T00:42:08.934Z,9.93
2018-07-25T00:45:33.783Z,9.50
2018-07-25T00:48:58.468Z,9.53
2018-07-25T00:52:24.169Z,9.13
2018-07-25T00:55:48.790Z,9.50
2018-07-25T00:59:13.476Z,9.67
2018-07-25T01:02:38.132Z,9.50
2018-07-25T01:06:02.911Z,9.30
2018-07-25T01:09:27.656Z,9.60
2018-07-25T01:12:52.416Z,9.23
2018-07-25T01:16:17.098Z,9.20
2018-07-25T01:19:41.838Z,9.70
2018-07-25T01:23:06.781Z,8.97
2018-07-25T01:26:31.444Z,9.97
2018-07-25T01:29:56.136Z,10.10
2018-07-25T01:33:20.864Z,9.53
2018-07-25T01:36:45.244Z,8.93
2018-07-25T01:40:10.099Z,10.20
2018-07-25T01:45:03.844Z,9.33
2018-07-25T01:48:28.584Z,9.80
2018-07-25T01:51:53.262Z,8.97
2018-07-25T01:55:18.044Z,9.77
2018-07-25T01:58:42.732Z,9.87
2018-07-25T02:02:07.513Z,9.90
2018-07-25T02:05:32.176Z,11.13
2018-07-25T02:08:57.268Z,10.67
2018-07-25T02:12:21.630Z,9.97
2018-07-25T02:15:46.880Z,10.13
2018-07-25T02:19:11.623Z,9.93
2018-07-25T02:22:36.306Z,10.13
2018-07-25T02:26:00.966Z,10.47
2018-07-25T02:29:25.294Z,10.20
2018-07-25T02:32:49.994Z,9.33
2018-07-25T02:36:14.682Z,10.03
2018-07-25T02:39:39.412Z,10.80
2018-07-25T02:43:04.111Z,10.37
2018-07-25T02:46:28.801Z,10.03
2018-07-25T02:49:53.615Z,10.70
2018-07-25T02:53:18.259Z,10.97
2018-07-25T02:56:46.349Z,10.60
2018-07-25T03:00:11.002Z,10.70
2018-07-25T03:03:35.654Z,10.57
2018-07-25T03:07:00.380Z,10.07
2018-07-25T03:10:25.049Z,10.40
2018-07-25T03:13:49.772Z,10.60
2018-07-25T03:17:14.578Z,10.50
2018-07-25T03:20:39.278Z,11.30
2018-07-25T03:24:27.180Z,11.50
2018-07-25T03:27:51.884Z,10.93
2018-07-25T03:31:16.701Z,11.00
2018-07-25T03:34:41.313Z,11.33
2018-07-25T03:38:06.307Z,10.70
2018-07-25T03:41:31.007Z,10.73
2018-07-25T03:44:55.657Z,11.17
2018-07-25T03:48:19.989Z,11.03
2018-07-25T03:51:44.727Z,11.60
2018-07-25T03:55:09.406Z,10.83
2018-07-25T03:58:34.175Z,11.00
2018-07-25T04:01:59.083Z,11.87
2018-07-25T04:05:23.350Z,11.90
2018-07-25T04:08:48.282Z,11.23
2018-07-25T04:12:13.018Z,11.60
2018-07-25T04:15:37.332Z,11.30
2018-07-25T04:19:02.043Z,10.83
2018-07-25T04:22:26.775Z,12.07
2018-07-25T04:25:51.465Z,10.53
2018-07-25T04:29:16.123Z,11.97
2018-07-25T04:32:41.624Z,10.37
2018-07-25T04:36:06.451Z,10.93
2018-07-25T04:39:31.152Z,11.73
2018-07-25T04:42:55.851Z,11.10
2018-07-25T04:46:20.653Z,11.40
2018-07-25T04:49:45.297Z,10.87
2018-07-25T04:53:09.940Z,12.17
2018-07-25T04:56:34.648Z,12.57
2018-07-25T04:59:59.396Z,12.13
2018-07-25T05:03:24.124Z,11.97
2018-07-25T05:06:48.891Z,12.30
2018-07-25T05:10:13.642Z,12.57
2018-07-25T05:13:38.402Z,12.10
2018-07-25T05:17:02.691Z,11.83
2018-07-25T05:20:27.356Z,10.93
2018-07-25T05:23:51.779Z,10.73
2018-07-25T05:27:16.464Z,12.73
2018-07-25T05:30:41.181Z,11.50
2018-07-25T05:34:06.047Z,11.43
2018-07-25T05:37:30.814Z,11.37
2018-07-25T05:40:55.694Z,11.93
2018-07-25T05:44:20.440Z,11.13
2018-07-25T05:47:45.117Z,11.97
2018-07-25T05:51:09.882Z,12.43
2018-07-25T05:54:34.630Z,12.07
2018-07-25T05:57:59.308Z,11.33
2018-07-25T06:01:25.314Z,12.43
2018-07-25T06:04:49.990Z,11.27
2018-07-25T06:08:14.738Z,13.00
2018-07-25T06:11:39.785Z,12.67
2018-07-25T06:15:04.967Z,12.07
2018-07-25T06:18:29.851Z,10.93
2018-07-25T06:21:54.599Z,11.70
2018-07-25T06:25:19.333Z,11.70
2018-07-25T06:28:44.165Z,11.67
2018-07-25T06:32:08.837Z,12.07
2018-07-25T06:35:33.531Z,12.33
2018-07-25T06:39:00.730Z,13.17
2018-07-25T06:42:28.393Z,12.43
2018-07-25T06:45:53.681Z,11.90
2018-07-25T06:49:18.713Z,12.10
2018-07-25T06:52:44.330Z,12.37
2018-07-25T06:56:09.392Z,12.10
2018-07-25T06:59:34.625Z,12.30
2018-07-25T07:03:00.689Z,12.00
2018-07-25T07:06:26.606Z,12.20
2018-07-25T07:09:52.930Z,12.40
2018-07-25T07:13:18.849Z,12.40
2018-07-25T07:16:44.857Z,13.03
2018-07-25T07:20:10.204Z,11.77
2018-07-25T07:23:34.903Z,11.70
2018-07-25T07:27:00.668Z,11.73
2018-07-25T07:30:26.027Z,12.03
2018-07-25T07:33:51.395Z,12.03
2018-07-25T07:37:16.862Z,12.57
2018-07-25T07:40:42.148Z,13.23
2018-07-25T07:44:06.807Z,12.50
2018-07-25T07:47:31.359Z,12.07
2018-07-25T07:50:56.209Z,12.77
2018-07-25T07:54:20.997Z,12.87
2018-07-25T07:57:45.724Z,12.67
2018-07-25T08:01:10.383Z,13.17
2018-07-25T08:04:35.119Z,13.53
2018-07-25T08:08:00.027Z,13.13
2018-07-25T08:11:24.786Z,13.53
2018-07-25T08:14:49.428Z,13.43
2018-07-25T08:18:14.214Z,12.10
2018-07-25T08:21:38.945Z,12.63
2018-07-25T08:25:03.597Z,12.93
2018-07-25T08:28:28.419Z,12.97
2018-07-25T08:31:52.790Z,12.20
2018-07-25T08:35:17.479Z,13.57
2018-07-25T08:38:42.893Z,11.97
2018-07-25T08:42:07.571Z,12.03
2018-07-25T08:45:32.343Z,12.67
2018-07-25T08:48:57.101Z,12.97
2018-07-25T08:52:22.068Z,11.63
2018-07-25T08:55:46.808Z,12.10
2018-07-25T08:59:11.538Z,13.50
2018-07-25T09:02:36.315Z,12.73
2018-07-25T09:06:01.128Z,12.27
2018-07-25T09:09:25.830Z,12.53
2018-07-25T09:12:50.289Z,12.27
2018-07-25T09:16:14.939Z,11.77
2018-07-25T09:19:39.766Z,11.73
2018-07-25T09:23:04.478Z,11.70
2018-07-25T09:26:29.288Z,11.23
2018-07-25T09:29:53.900Z,13.23
2018-07-25T09:33:18.635Z,12.13
2018-07-25T09:36:43.340Z,11.67
2018-07-25T09:40:08.178Z,10.90
2018-07-25T09:43:32.950Z,10.83
2018-07-25T09:46:57.705Z,11.20
2018-07-25T09:50:22.333Z,11.33
2018-07-25T09:53:47.030Z,11.37
2018-07-25T09:57:11.856Z,10.53
2018-07-25T10:00:41.839Z,10.60
2018-07-25T10:04:06.643Z,9.87
2018-07-25T10:07:31.368Z,9.10
2018-07-25T10:10:56.096Z,8.97
2018-07-25T10:14:20.801Z,9.53
2018-07-25T10:17:45.505Z,8.40
2018-07-25T10:21:10.311Z,8.17
2018-07-25T10:24:34.709Z,9.23
2018-07-25T10:27:59.632Z,9.27
2018-07-25T10:31:24.365Z,10.20
2018-07-25T10:34:49.019Z,9.98
2018-07-25T10:38:13.721Z,10.93
2018-07-25T10:41:38.445Z,9.68
2018-07-25T10:45:03.125Z,9.20
2018-07-25T10:48:27.781Z,7.65
2018-07-25T10:51:52.512Z,9.23
2018-07-25T10:55:17.187Z,9.78
2018-07-25T10:58:41.879Z,8.43
2018-07-25T11:02:08.208Z,7.92
2018-07-25T11:05:32.847Z,8.80
2018-07-25T11:08:57.571Z,9.13
2018-07-25T11:12:22.410Z,8.10
2018-07-25T11:15:47.093Z,8.33
2018-07-25T11:19:11.741Z,7.78
2018-07-25T11:22:36.073Z,7.35
2018-07-25T11:26:00.701Z,8.05
2018-07-25T11:29:25.370Z,6.72
2018-07-25T11:32:50.128Z,6.75
2018-07-25T11:36:14.845Z,7.42
2018-07-25T11:39:39.479Z,7.12
2018-07-25T11:43:04.401Z,6.83
2018-07-25T11:46:29.094Z,6.78
2018-07-25T11:49:53.807Z,6.53
2018-07-25T11:53:19.635Z,6.22
2018-07-25T11:56:44.320Z,6.75
2018-07-25T12:00:09.151Z,6.47
2018-07-25T12:03:33.950Z,6.08
2018-07-25T12:10:23.415Z,6.60
2018-07-25T12:13:48.073Z,6.37
2018-07-25T12:17:12.871Z,6.20
2018-07-25T12:20:37.688Z,6.60
2018-07-25T12:24:02.492Z,6.62
2018-07-25T12:27:27.187Z,6.22
2018-07-25T12:30:51.881Z,6.47
2018-07-25T12:34:16.604Z,6.37
2018-07-25T12:37:40.972Z,6.78
2018-07-25T12:41:05.736Z,5.78
2018-07-25T12:44:30.501Z,5.62
2018-07-25T12:47:55.292Z,7.55
2018-07-25T12:51:20.051Z,5.85
2018-07-25T12:54:45.276Z,5.97
2018-07-25T12:58:10.007Z,5.78
2018-07-25T13:01:34.789Z,5.62
2018-07-25T13:04:59.485Z,5.08
2018-07-25T13:08:24.334Z,5.30
2018-07-25T13:11:49.041Z,4.97
2018-07-25T13:15:13.762Z,4.78
2018-07-25T13:18:38.753Z,3.67
2018-07-25T13:22:03.576Z,3.58
2018-07-25T13:25:28.481Z,3.55
2018-07-25T13:28:53.334Z,3.90
2018-07-25T13:32:17.907Z,3.70
2018-07-25T13:35:42.639Z,3.27
2018-07-25T13:39:09.190Z,3.40
2018-07-25T13:42:33.924Z,3.65
2018-07-25T13:45:58.822Z,4.10
2018-07-25T13:49:24.281Z,3.42
2018-07-25T13:52:49.027Z,3.95
2018-07-25T13:56:13.692Z,3.42
2018-07-25T13:59:38.407Z,3.20
2018-07-25T14:03:03.267Z,3.40
2018-07-25T14:06:27.970Z,3.65
2018-07-25T14:09:52.686Z,3.45
2018-07-25T14:13:17.385Z,3.20
2018-07-25T14:16:42.164Z,3.40
2018-07-25T14:20:06.853Z,3.70
2018-07-25T14:23:31.655Z,3.10
2018-07-25T14:26:56.369Z,3.17
2018-07-25T14:30:21.268Z,3.50
2018-07-25T14:33:45.552Z,3.60
2018-07-25T14:37:10.265Z,3.40
2018-07-25T14:40:34.979Z,3.65
2018-07-25T14:43:59.656Z,4.08
2018-07-25T14:47:24.466Z,3.90
2018-07-25T14:50:49.163Z,3.33
2018-07-25T14:54:13.940Z,3.70
2018-07-25T14:57:38.683Z,3.30
2018-07-25T15:01:03.486Z,3.27
2018-07-25T15:04:28.124Z,3.37
2018-07-25T15:07:52.833Z,3.50
2018-07-25T15:11:17.595Z,3.50
2018-07-25T15:14:42.259Z,3.40
2018-07-25T15:18:07.059Z,3.83
2018-07-25T15:21:31.425Z,3.50
2018-07-25T15:24:56.110Z,3.70
2018-07-25T15:28:20.916Z,3.30
2018-07-25T15:31:45.555Z,3.58
2018-07-25T15:35:10.856Z,3.33
2018-07-25T15:38:35.657Z,3.77
2018-07-25T15:42:00.433Z,3.47
2018-07-25T15:45:25.223Z,4.08
2018-07-25T15:48:50.028Z,4.17
2018-07-25T15:52:14.819Z,4.67
2018-07-25T15:55:39.528Z,4.03
2018-07-25T15:59:04.637Z,4.03
2018-07-25T16:02:29.390Z,4.15
2018-07-25T16:05:53.790Z,4.17
2018-07-25T16:09:18.473Z,3.72
2018-07-25T16:12:43.317Z,4.30
2018-07-25T16:16:08.577Z,4.28
2018-07-25T16:19:33.319Z,4.30
2018-07-25T16:22:58.053Z,4.47
2018-07-25T16:26:22.799Z,4.75
2018-07-25T16:29:47.482Z,4.58
2018-07-25T16:33:12.128Z,4.83
2018-07-25T16:36:36.871Z,5.12
2018-07-25T16:40:01.500Z,4.90
2018-07-25T16:43:26.378Z,6.70
2018-07-25T16:46:51.187Z,5.05
2018-07-25T16:50:15.987Z,5.47
2018-07-25T16:53:40.707Z,5.50
2018-07-25T16:57:05.676Z,5.28
2018-07-25T17:00:30.523Z,5.75
2018-07-25T17:03:55.229Z,5.25
2018-07-25T17:07:20.060Z,5.17
2018-07-25T17:10:44.852Z,5.45
2018-07-25T17:14:09.658Z,5.30
2018-07-25T17:17:34.390Z,5.72
2018-07-25T17:20:59.129Z,4.78
2018-07-25T17:24:24.051Z,5.37
2018-07-25T17:27:48.780Z,5.28
2018-07-25T17:31:13.532Z,6.58
2018-07-25T17:34:38.235Z,5.83
2018-07-25T17:38:02.969Z,5.53
2018-07-25T17:41:27.838Z,5.95
2018-07-25T17:44:52.429Z,6.12
2018-07-25T17:48:17.135Z,6.50
2018-07-25T17:51:41.823Z,6.22
2018-07-25T17:55:06.671Z,6.85
2018-07-25T17:58:31.477Z,6.67
2018-07-25T18:01:56.298Z,6.80
2018-07-25T18:05:21.058Z,6.45
2018-07-25T18:08:45.881Z,6.60
2018-07-25T18:12:10.770Z,6.60
2018-07-25T18:15:35.561Z,6.00
2018-07-25T18:19:00.240Z,6.35
2018-07-25T18:22:24.917Z,6.17
2018-07-25T18:25:49.627Z,6.50
2018-07-25T18:29:14.379Z,6.42
2018-07-25T18:32:39.102Z,6.45
2018-07-25T18:36:04.751Z,6.37
2018-07-25T18:39:29.618Z,6.10
2018-07-25T18:42:54.308Z,6.55
2018-07-25T18:46:19.501Z,6.90
2018-07-25T18:49:44.339Z,6.53
2018-07-25T18:53:09.048Z,6.05
2018-07-25T18:56:33.748Z,6.05
2018-07-25T18:59:58.534Z,6.65
2018-07-25T19:03:23.342Z,6.35
2018-07-25T19:06:47.717Z,6.50
2018-07-25T19:10:12.355Z,6.78
2018-07-25T19:13:37.233Z,6.87
2018-07-25T19:17:02.185Z,6.62
2018-07-25T19:20:27.298Z,7.00
2018-07-25T19:23:52.055Z,6.67
2018-07-25T19:27:16.940Z,6.83
2018-07-25T19:30:41.648Z,6.90
2018-07-25T19:34:06.271Z,7.37
2018-07-25T19:37:30.941Z,7.22
2018-07-25T19:40:55.943Z,7.60
2018-07-25T19:44:20.896Z,7.00
2018-07-25T19:47:45.265Z,7.35
2018-07-25T19:51:10.259Z,7.33
2018-07-25T19:54:35.292Z,7.37
2018-07-25T19:58:00.051Z,6.73
2018-07-25T20:01:24.974Z,7.60
2018-07-25T20:04:49.666Z,7.60
2018-07-25T20:08:14.388Z,7.30
2018-07-25T20:11:39.557Z,7.55
2018-07-25T20:15:09.990Z,8.15
2018-07-25T20:18:34.977Z,7.80
2018-07-25T20:21:59.682Z,6.92
2018-07-25T20:25:24.294Z,6.80
2018-07-25T20:28:48.980Z,7.23
2018-07-25T20:32:13.717Z,7.43
2018-07-25T20:35:38.228Z,7.50
2018-07-25T20:39:03.204Z,7.43
2018-07-25T20:42:28.424Z,7.30
2018-07-25T20:45:53.166Z,7.50
2018-07-25T20:49:17.978Z,7.80
2018-07-25T20:52:43.131Z,7.03
2018-07-25T20:56:07.862Z,7.70
2018-07-25T20:59:32.950Z,7.10
2018-07-25T21:02:57.936Z,8.27
2018-07-25T21:06:22.737Z,7.97
2018-07-25T21:09:47.422Z,7.83
2018-07-25T21:13:12.226Z,8.00
2018-07-25T21:16:36.656Z,7.05
2018-07-25T21:23:24.893Z,7.50
2018-07-25T21:26:49.604Z,8.10
2018-07-25T21:30:14.312Z,7.63
2018-07-25T21:33:38.918Z,7.50
2018-07-25T21:37:03.701Z,8.10
2018-07-25T21:40:28.079Z,7.77
2018-07-25T21:43:52.786Z,7.47
2018-07-25T21:47:17.190Z,7.33
2018-07-25T21:50:41.900Z,7.70
2018-07-25T21:54:06.453Z,7.73
2018-07-25T21:57:31.107Z,8.20
2018-07-25T22:01:00.659Z,7.27
2018-07-25T22:04:25.368Z,7.40
2018-07-25T22:18:01.875Z,7.75
2018-07-25T22:21:26.668Z,7.70
2018-07-25T22:24:51.427Z,8.30
2018-07-25T22:31:40.022Z,8.10
2018-07-25T22:35:04.850Z,7.53
2018-07-25T22:38:29.527Z,8.33
2018-07-25T22:41:54.285Z,8.67
2018-07-25T22:45:19.027Z,7.70
2018-07-25T22:48:43.669Z,8.07
2018-07-25T22:52:08.368Z,7.90
2018-07-25T22:55:33.062Z,8.37
2018-07-25T22:58:57.760Z,7.57
2018-07-25T23:02:22.455Z,7.63
2018-07-25T23:05:47.158Z,7.23
2018-07-25T23:09:12.389Z,7.07
2018-07-25T23:12:37.074Z,7.90
2018-07-25T23:16:01.861Z,7.37
2018-07-25T23:19:26.619Z,7.60
2018-07-25T23:23:01.538Z,7.57
2018-07-25T23:26:26.307Z,7.43
2018-07-25T23:29:50.987Z,7.47
2018-07-25T23:33:15.699Z,7.57
2018-07-25T23:36:41.660Z,8.07
2018-07-25T23:40:06.365Z,7.60
2018-07-25T23:46:54.873Z,7.47
2018-07-25T23:50:19.242Z,7.70
2018-07-25T23:53:44.110Z,7.07
2018-07-25T23:57:08.514Z,7.20
